Time;durP1;ratioP1;P1;durP2;ratioP2;P2;SDS_P1;SDS_P2;PMS_P1;PMS_P2;Temp;Humidity;BMP_temperature;BMP_pressure;BME280_temperature;BME280_humidity;BME280_pressure;Samples;Min_cycle;Max_cycle;Signal;HPM_P1;HPM_P2
2022/07/27 00:00:07;;;;;;;0.20;0.20;;;17.70;81.10;;;;;;5063753;28;20033;-87
2022/07/27 00:02:33;;;;;;;0.28;0.28;;;17.70;80.60;;;;;;5062658;28;20053;-86
2022/07/27 00:04:58;;;;;;;1.00;0.75;;;17.60;79.70;;;;;;5064219;28;20451;-87
2022/07/27 00:07:24;;;;;;;0.50;0.40;;;17.60;81.70;;;;;;5066774;28;20414;-86
2022/07/27 00:09:49;;;;;;;0.30;0.30;;;17.60;80.60;;;;;;5061943;28;20032;-86
2022/07/27 00:12:15;;;;;;;0.40;0.40;;;17.60;82.10;;;;;;5058901;28;20031;-89
2022/07/27 00:14:40;;;;;;;1.75;0.75;;;17.60;82.50;;;;;;5061320;28;20704;-87
2022/07/27 00:17:06;;;;;;;0.30;0.25;;;17.50;80.80;;;;;;5068269;28;20036;-85
2022/07/27 00:19:31;;;;;;;1.52;0.35;;;17.40;81.20;;;;;;5064167;28;20127;-88
2022/07/27 00:21:57;;;;;;;1.35;0.32;;;17.40;81.60;;;;;;5059513;28;20123;-89
2022/07/27 00:24:23;;;;;;;0.77;0.57;;;17.40;80.90;;;;;;5064798;28;20028;-87
2022/07/27 00:26:49;;;;;;;1.13;0.63;;;17.30;80.90;;;;;;5062280;28;20032;-86
2022/07/27 00:29:14;;;;;;;1.00;0.50;;;17.30;80.60;;;;;;5060203;28;20439;-88
2022/07/27 00:31:40;;;;;;;1.05;0.32;;;17.10;82.30;;;;;;5058952;28;20602;-89
2022/07/27 00:34:05;;;;;;;0.60;0.60;;;17.10;83.60;;;;;;5062886;28;20031;-90
2022/07/27 00:36:31;;;;;;;3.47;0.60;;;16.90;83.50;;;;;;5061887;28;20103;-89
2022/07/27 00:38:56;;;;;;;0.32;0.32;;;16.80;82.90;;;;;;5060940;28;20036;-87
2022/07/27 00:41:22;;;;;;;0.40;0.30;;;16.80;83.40;;;;;;5053044;28;20037;-87
2022/07/27 00:43:51;;;;;;;0.20;0.20;;;16.70;86.90;;;;;;5057528;28;20029;-90
2022/07/27 00:46:17;;;;;;;0.73;0.30;;;16.70;85.80;;;;;;5065680;28;20027;-87
2022/07/27 00:48:42;;;;;;;0.28;0.22;;;16.60;86.80;;;;;;5060364;28;20390;-87
2022/07/27 00:51:08;;;;;;;0.32;0.32;;;16.50;85.70;;;;;;5054111;28;20037;-87
2022/07/27 00:53:34;;;;;;;0.32;0.32;;;16.40;87.60;;;;;;5057812;28;20124;-87
2022/07/27 00:55:59;;;;;;;0.47;0.38;;;16.30;90.80;;;;;;5065806;28;20047;-88
2022/07/27 00:58:27;;;;;;;0.68;0.40;;;16.10;87.40;;;;;;5072727;28;20024;-87
2022/07/27 01:00:52;;;;;;;0.20;0.20;;;16.20;91.00;;;;;;5061567;28;20045;-87
2022/07/27 01:03:18;;;;;;;0.52;0.40;;;16.10;90.50;;;;;;5059993;28;20446;-88
2022/07/27 01:05:43;;;;;;;2.35;0.70;;;16.10;90.80;;;;;;5067740;28;20021;-88
2022/07/27 01:08:11;;;;;;;1.65;0.38;;;16.00;91.70;;;;;;5060245;28;20425;-87
2022/07/27 01:10:37;;;;;;;0.47;0.47;;;16.00;90.70;;;;;;5057632;28;20033;-87
2022/07/27 01:13:03;;;;;;;0.75;0.38;;;15.90;92.70;;;;;;5068680;28;20039;-87
2022/07/27 01:15:29;;;;;;;2.55;1.65;;;15.80;94.20;;;;;;5065683;28;20111;-86
2022/07/27 01:17:55;;;;;;;1.23;0.50;;;15.70;93.30;;;;;;5061902;28;20073;-86
2022/07/27 01:20:21;;;;;;;1.48;0.82;;;15.70;94.20;;;;;;5062599;28;20028;-87
2022/07/27 01:22:46;;;;;;;2.28;0.35;;;15.50;93.10;;;;;;5055665;28;20039;-87
2022/07/27 01:25:13;;;;;;;0.77;0.40;;;15.40;93.60;;;;;;5052665;28;20049;-88
2022/07/27 01:27:38;;;;;;;0.43;0.25;;;15.50;92.20;;;;;;5058868;28;20252;-87
2022/07/27 01:30:25;;;;;;;0.60;0.32;;;15.50;92.30;;;;;;5053851;28;20033;-88
2022/07/27 01:32:57;;;;;;;0.65;0.47;;;15.50;92.60;;;;;;5062599;28;20450;-87
2022/07/27 01:35:23;;;;;;;0.93;0.70;;;15.50;91.70;;;;;;5056415;28;20534;-88
2022/07/27 01:37:48;;;;;;;0.52;0.25;;;15.50;93.90;;;;;;5063620;28;20024;-87
2022/07/27 01:40:14;;;;;;;0.47;0.35;;;15.50;93.60;;;;;;5059139;28;20041;-87
2022/07/27 01:42:39;;;;;;;0.57;0.40;;;15.40;95.30;;;;;;5060654;28;20113;-88
2022/07/27 01:45:05;;;;;;;0.30;0.25;;;15.30;94.20;;;;;;5057170;28;20025;-89
2022/07/27 01:47:31;;;;;;;0.20;0.20;;;15.30;93.40;;;;;;5059151;28;20460;-87
2022/07/27 01:49:56;;;;;;;4.38;0.85;;;15.20;93.50;;;;;;5059816;28;20055;-87
2022/07/27 01:52:22;;;;;;;0.60;0.57;;;15.20;93.40;;;;;;5058595;28;20973;-87
2022/07/27 01:54:47;;;;;;;0.47;0.47;;;15.20;93.20;;;;;;5057906;28;20017;-86
2022/07/27 01:57:13;;;;;;;0.20;0.20;;;15.20;93.70;;;;;;5058654;28;20028;-86
2022/07/27 01:59:39;;;;;;;0.30;0.30;;;15.20;93.60;;;;;;5061106;28;20025;-87
2022/07/27 02:02:04;;;;;;;1.50;0.73;;;15.20;93.40;;;;;;5055467;28;20442;-86
2022/07/27 02:04:30;;;;;;;0.38;0.30;;;15.20;93.50;;;;;;5067146;28;20056;-87
2022/07/27 02:06:55;;;;;;;0.35;0.35;;;15.10;93.50;;;;;;5060936;28;20092;-86
2022/07/27 02:09:24;;;;;;;0.65;0.38;;;15.10;93.80;;;;;;5061511;28;20582;-87
2022/07/27 02:14:34;;;;;;;0.22;0.20;;;15.00;93.60;;;;;;5059359;28;20034;-87
2022/07/27 02:17:00;;;;;;;0.35;0.32;;;15.00;94.60;;;;;;5055609;28;20100;-87
2022/07/27 02:19:27;;;;;;;0.17;0.17;;;15.00;94.10;;;;;;5049153;28;20369;-86
2022/07/27 02:21:53;;;;;;;1.42;0.40;;;15.00;95.70;;;;;;5058965;28;20029;-87
2022/07/27 02:24:18;;;;;;;1.00;0.30;;;14.90;96.20;;;;;;5050138;28;20205;-87
2022/07/27 02:26:44;;;;;;;2.00;0.88;;;14.90;95.90;;;;;;5061772;28;20096;-87
2022/07/27 02:29:09;;;;;;;0.80;0.40;;;14.90;95.90;;;;;;5060654;28;20025;-88
2022/07/27 02:31:35;;;;;;;1.35;0.28;;;14.80;96.20;;;;;;5053755;28;20021;-87
2022/07/27 02:34:00;;;;;;;0.85;0.22;;;14.70;96.60;;;;;;5063815;28;20021;-86
2022/07/27 02:36:29;;;;;;;0.20;0.20;;;14.70;96.80;;;;;;5064043;28;20032;-87
2022/07/27 02:38:55;;;;;;;1.13;0.50;;;14.70;97.00;;;;;;5076177;28;20071;-87
2022/07/27 02:41:20;;;;;;;1.48;0.30;;;14.70;97.50;;;;;;5065879;28;20495;-86
2022/07/27 02:43:46;;;;;;;1.52;0.35;;;14.70;97.50;;;;;;5066049;28;20059;-87
2022/07/27 02:46:11;;;;;;;2.05;0.32;;;14.60;97.00;;;;;;5062855;28;20055;-87
2022/07/27 02:48:37;;;;;;;1.92;0.30;;;14.60;96.70;;;;;;5064186;28;20643;-87
2022/07/27 02:51:02;;;;;;;0.40;0.40;;;14.60;98.20;;;;;;5068681;28;20056;-86
2022/07/27 02:53:29;;;;;;;0.30;0.30;;;14.50;98.20;;;;;;5074871;28;20028;-86
2022/07/27 02:55:55;;;;;;;0.38;0.38;;;14.50;97.90;;;;;;5066617;28;20114;-88
2022/07/27 02:58:21;;;;;;;0.98;0.30;;;14.50;97.90;;;;;;5057764;28;20039;-85
2022/07/27 03:00:46;;;;;;;0.28;0.28;;;14.40;98.20;;;;;;5062784;28;20103;-86
2022/07/27 03:03:12;;;;;;;1.60;0.85;;;14.40;98.10;;;;;;5066940;28;20021;-86
2022/07/27 03:05:38;;;;;;;0.93;0.47;;;14.40;98.80;;;;;;5066729;28;20021;-87
2022/07/27 03:08:04;;;;;;;1.10;0.93;;;14.30;98.30;;;;;;5063897;28;20425;-86
2022/07/27 03:10:30;;;;;;;0.30;0.30;;;14.40;98.90;;;;;;5063808;28;20067;-87
2022/07/27 03:12:56;;;;;;;0.30;0.30;;;14.40;98.40;;;;;;5055198;28;20057;-85
2022/07/27 03:15:21;;;;;;;2.70;0.50;;;14.40;98.20;;;;;;5070812;28;20111;-86
2022/07/27 03:17:47;;;;;;;0.30;0.30;;;14.40;98.70;;;;;;5056195;28;20032;-86
2022/07/27 03:20:12;;;;;;;0.45;0.45;;;14.30;98.70;;;;;;5063835;28;20032;-87
2022/07/27 03:22:38;;;;;;;0.45;0.45;;;14.30;98.60;;;;;;5065638;28;20033;-86
2022/07/27 03:25:04;;;;;;;1.08;0.38;;;14.30;99.20;;;;;;5054938;28;20016;-86
2022/07/27 03:27:29;;;;;;;2.00;0.52;;;14.40;99.00;;;;;;5064725;28;20021;-86
2022/07/27 03:29:56;;;;;;;0.80;0.30;;;14.40;98.90;;;;;;5065426;28;20147;-87
2022/07/27 03:32:22;;;;;;;0.68;0.35;;;14.40;99.10;;;;;;5057358;28;20091;-86
2022/07/27 03:34:47;;;;;;;0.88;0.77;;;14.40;99.60;;;;;;5073358;28;20499;-87
2022/07/27 03:37:14;;;;;;;4.00;0.20;;;14.30;99.30;;;;;;5057733;28;20040;-87
2022/07/27 03:39:39;;;;;;;0.40;0.40;;;14.30;99.30;;;;;;5058694;28;20021;-87
2022/07/27 03:42:05;;;;;;;0.10;0.10;;;14.30;99.30;;;;;;5066904;28;20027;-88
2022/07/27 03:44:31;;;;;;;0.60;0.60;;;14.30;99.10;;;;;;5058423;28;20028;-86
2022/07/27 03:46:56;;;;;;;2.40;1.58;;;14.20;99.10;;;;;;5063141;28;20031;-86
2022/07/27 03:49:22;;;;;;;0.75;0.50;;;14.30;99.50;;;;;;5057164;28;20589;-87
2022/07/27 03:51:47;;;;;;;1.05;0.63;;;14.30;99.70;;;;;;5067502;28;20424;-86
2022/07/27 03:54:13;;;;;;;0.98;0.40;;;14.30;99.50;;;;;;5060263;28;20031;-88
2022/07/27 03:56:38;;;;;;;0.65;0.40;;;14.30;99.70;;;;;;5066474;28;20048;-86
2022/07/27 03:59:04;;;;;;;0.73;0.50;;;14.30;99.90;;;;;;5053561;28;20033;-86
2022/07/27 04:01:29;;;;;;;0.50;0.50;;;14.30;99.80;;;;;;5057929;28;20186;-89
2022/07/27 04:03:55;;;;;;;0.50;0.35;;;14.30;99.80;;;;;;5062837;28;20395;-84
2022/07/27 04:06:20;;;;;;;0.65;0.43;;;14.20;99.90;;;;;;5063041;28;20032;-85
2022/07/27 04:08:46;;;;;;;2.13;0.50;;;14.30;99.90;;;;;;5066634;28;20017;-85
2022/07/27 04:11:11;;;;;;;1.33;0.32;;;14.30;99.90;;;;;;5057236;28;20024;-87
2022/07/27 04:13:37;;;;;;;0.43;0.40;;;14.30;99.90;;;;;;5066994;28;20031;-86
2022/07/27 04:16:02;;;;;;;0.60;0.60;;;14.20;99.90;;;;;;5066175;28;20062;-86
2022/07/27 04:18:28;;;;;;;0.93;0.32;;;14.20;99.90;;;;;;5063195;28;20554;-85
2022/07/27 04:20:53;;;;;;;0.40;0.40;;;14.20;99.90;;;;;;5067362;28;20384;-85
2022/07/27 04:23:18;;;;;;;0.60;0.50;;;14.30;99.90;;;;;;5059238;28;20052;-85
2022/07/27 04:25:44;;;;;;;0.45;0.43;;;14.30;99.90;;;;;;5058241;28;20029;-85
2022/07/27 04:28:09;;;;;;;3.20;0.85;;;14.30;99.90;;;;;;5058019;28;20024;-85
2022/07/27 04:30:35;;;;;;;1.67;1.25;;;14.30;99.90;;;;;;5065908;28;20438;-85
2022/07/27 04:33:15;;;;;;;0.60;0.60;;;14.30;99.90;;;;;;5062174;28;20020;-86
2022/07/27 04:35:41;;;;;;;0.63;0.40;;;14.30;99.90;;;;;;5062478;28;20036;-86
2022/07/27 04:38:06;;;;;;;0.35;0.30;;;14.30;99.90;;;;;;5061064;28;20047;-85
2022/07/27 04:40:33;;;;;;;1.38;0.40;;;14.30;99.90;;;;;;5060377;28;20032;-86
2022/07/27 04:43:01;;;;;;;0.30;0.30;;;14.40;99.90;;;;;;5065417;28;20020;-86
2022/07/27 04:45:27;;;;;;;1.20;0.45;;;14.40;99.90;;;;;;5059915;28;20036;-88
2022/07/27 04:47:52;;;;;;;0.30;0.30;;;14.40;99.90;;;;;;5058165;28;20116;-85
2022/07/27 04:50:18;;;;;;;1.35;0.75;;;14.40;99.90;;;;;;5063290;28;20539;-84
2022/07/27 04:52:44;;;;;;;0.25;0.25;;;14.40;99.90;;;;;;5062900;28;20115;-86
2022/07/27 04:55:09;;;;;;;3.35;0.80;;;14.40;99.90;;;;;;5058405;28;20463;-85
2022/07/27 04:57:35;;;;;;;2.65;0.75;;;14.40;99.90;;;;;;5058723;28;20025;-85
2022/07/27 05:00:00;;;;;;;0.32;0.32;;;14.40;99.90;;;;;;5062187;28;20028;-86
2022/07/27 05:02:27;;;;;;;0.20;0.20;;;14.50;99.90;;;;;;5064301;28;20036;-85
2022/07/27 05:04:53;;;;;;;0.30;0.25;;;14.50;99.90;;;;;;5053604;28;20039;-89
2022/07/27 05:07:18;;;;;;;0.40;0.32;;;14.60;99.90;;;;;;5065009;28;20032;-84
2022/07/27 05:09:45;;;;;;;0.20;0.20;;;14.60;99.90;;;;;;5056476;28;20020;-85
2022/07/27 05:12:10;;;;;;;0.60;0.47;;;14.70;99.90;;;;;;5059938;28;20393;-87
2022/07/27 05:14:36;;;;;;;0.43;0.32;;;14.70;99.80;;;;;;5062181;28;20028;-85
2022/07/27 05:17:02;;;;;;;0.40;0.40;;;14.70;99.60;;;;;;5068454;28;20020;-86
2022/07/27 05:19:30;;;;;;;4.07;0.40;;;14.80;99.70;;;;;;5063321;28;20043;-83
2022/07/27 05:21:56;;;;;;;4.03;0.30;;;14.90;99.80;;;;;;5054320;28;20565;-84
2022/07/27 05:24:21;;;;;;;0.20;0.20;;;14.90;99.70;;;;;;5063529;28;20040;-88
2022/07/27 05:26:47;;;;;;;0.20;0.20;;;14.90;99.80;;;;;;5056009;28;20024;-84
2022/07/27 05:29:12;;;;;;;0.30;0.28;;;14.80;99.20;;;;;;5056715;28;20437;-85
2022/07/27 05:31:38;;;;;;;0.40;0.30;;;14.70;99.70;;;;;;5054972;28;20654;-85
2022/07/27 05:34:03;;;;;;;1.35;1.20;;;14.70;99.80;;;;;;5058757;28;20343;-86
2022/07/27 05:36:29;;;;;;;0.28;0.28;;;14.70;99.90;;;;;;5060536;28;20052;-86
2022/07/27 05:38:54;;;;;;;0.32;0.30;;;14.70;99.90;;;;;;5054323;28;20059;-88
2022/07/27 05:41:24;;;;;;;0.40;0.40;;;14.70;99.90;;;;;;5057835;28;20032;-76
2022/07/27 05:43:50;;;;;;;0.65;0.60;;;14.70;99.90;;;;;;5053956;28;20034;-84
2022/07/27 05:46:16;;;;;;;0.80;0.52;;;14.80;99.90;;;;;;5061491;28;20132;-82
2022/07/27 05:48:42;;;;;;;0.25;0.25;;;14.80;99.90;;;;;;5059904;28;20107;-76
2022/07/27 05:51:07;;;;;;;0.57;0.57;;;14.80;99.90;;;;;;5049882;28;20078;-74
2022/07/27 05:53:33;;;;;;;0.90;0.80;;;14.70;99.90;;;;;;5056238;28;20468;-73
2022/07/27 05:55:59;;;;;;;1.92;0.25;;;14.80;99.90;;;;;;5070454;28;20044;-75
2022/07/27 05:58:24;;;;;;;1.00;0.60;;;14.80;99.90;;;;;;5052205;28;20463;-78
2022/07/27 06:00:50;;;;;;;0.20;0.20;;;14.80;99.90;;;;;;5057856;28;20090;-72
2022/07/27 06:03:15;;;;;;;0.15;0.15;;;14.90;99.90;;;;;;5049662;28;20056;-75
2022/07/27 06:05:41;;;;;;;2.53;1.17;;;15.00;99.90;;;;;;5055165;28;20098;-77
2022/07/27 06:08:09;;;;;;;0.20;0.20;;;15.40;99.90;;;;;;5058524;28;20024;-82
2022/07/27 06:10:36;;;;;;;0.75;0.55;;;15.40;99.90;;;;;;5052554;28;20107;-74
2022/07/27 06:13:03;;;;;;;6.47;1.05;;;15.30;99.80;;;;;;5047822;28;20078;-74
2022/07/27 06:15:29;;;;;;;0.98;0.40;;;15.20;99.20;;;;;;5052264;28;20032;-73
2022/07/27 06:17:54;;;;;;;0.52;0.40;;;15.20;99.80;;;;;;5057606;28;20056;-72
2022/07/27 06:20:21;;;;;;;0.65;0.20;;;15.20;99.30;;;;;;5050042;28;20711;-72
2022/07/27 06:22:49;;;;;;;0.40;0.40;;;15.20;99.10;;;;;;5067328;28;20029;-72
2022/07/27 06:25:16;;;;;;;0.30;0.30;;;15.20;98.90;;;;;;5055576;28;20024;-72
2022/07/27 06:27:42;;;;;;;0.50;0.30;;;15.20;98.50;;;;;;5059254;28;20098;-73
2022/07/27 06:30:10;;;;;;;1.40;0.47;;;15.30;98.60;;;;;;5055332;28;20020;-72
2022/07/27 06:32:35;;;;;;;5.70;0.82;;;15.40;99.20;;;;;;5059075;28;20029;-73
2022/07/27 06:35:01;;;;;;;0.63;0.60;;;15.50;98.20;;;;;;5047009;28;20035;-71
2022/07/27 06:37:28;;;;;;;0.88;0.45;;;15.50;97.90;;;;;;5051506;28;20551;-72
2022/07/27 06:39:54;;;;;;;0.47;0.47;;;15.60;98.30;;;;;;5059993;28;20025;-72
2022/07/27 06:42:19;;;;;;;0.45;0.45;;;15.70;97.20;;;;;;5051214;28;20021;-72
2022/07/27 06:44:45;;;;;;;1.25;0.28;;;15.80;96.70;;;;;;5048473;28;20079;-71
2022/07/27 06:47:10;;;;;;;0.35;0.30;;;15.80;96.90;;;;;;5054187;28;20108;-72
2022/07/27 06:49:36;;;;;;;2.53;0.35;;;15.80;97.00;;;;;;5059605;28;20020;-72
2022/07/27 06:52:01;;;;;;;2.15;0.40;;;15.80;97.30;;;;;;5050042;28;20036;-72
2022/07/27 06:54:27;;;;;;;0.63;0.30;;;15.80;97.90;;;;;;5057434;28;20123;-73
2022/07/27 06:56:52;;;;;;;0.17;0.17;;;15.80;97.20;;;;;;5052396;28;20105;-73
2022/07/27 06:59:18;;;;;;;0.63;0.20;;;15.80;97.10;;;;;;5057045;28;20040;-72
2022/07/27 07:01:43;;;;;;;1.30;0.60;;;15.90;97.70;;;;;;5049818;28;20128;-74
2022/07/27 07:04:09;;;;;;;1.55;0.50;;;16.00;97.40;;;;;;5046975;28;20391;-75
2022/07/27 07:06:35;;;;;;;0.73;0.35;;;16.20;97.10;;;;;;5057772;28;20150;-74
2022/07/27 07:09:00;;;;;;;0.88;0.50;;;16.10;96.20;;;;;;5050668;28;20024;-76
2022/07/27 07:11:26;;;;;;;0.63;0.40;;;16.50;98.40;;;;;;5057561;28;20074;-76
2022/07/27 07:13:51;;;;;;;0.77;0.63;;;17.30;92.80;;;;;;5054749;28;20450;-76
2022/07/27 07:16:17;;;;;;;0.40;0.30;;;17.10;91.80;;;;;;5056838;28;20045;-78
2022/07/27 07:18:42;;;;;;;0.25;0.25;;;16.80;92.60;;;;;;5048407;28;20075;-77
2022/07/27 07:21:08;;;;;;;0.55;0.50;;;16.70;92.90;;;;;;5052246;28;20115;-77
2022/07/27 07:23:33;;;;;;;0.20;0.20;;;16.70;93.00;;;;;;5061003;28;20076;-76
2022/07/27 07:25:59;;;;;;;6.95;3.42;;;16.70;91.50;;;;;;5054756;28;20028;-75
2022/07/27 07:28:24;;;;;;;0.40;0.40;;;16.70;91.60;;;;;;5068110;28;20021;-80
2022/07/27 07:30:50;;;;;;;0.70;0.35;;;16.80;93.10;;;;;;5051618;28;20029;-77
2022/07/27 07:33:15;;;;;;;1.38;1.20;;;17.00;93.00;;;;;;5055697;28;20031;-76
2022/07/27 07:35:42;;;;;;;0.30;0.30;;;17.10;92.50;;;;;;5047893;28;20559;-76
2022/07/27 07:38:07;;;;;;;2.33;0.70;;;17.20;92.00;;;;;;5061738;28;20082;-74
2022/07/27 07:40:33;;;;;;;0.10;0.10;;;17.20;90.20;;;;;;5061742;28;20137;-74
2022/07/27 07:43:01;;;;;;;0.50;0.45;;;17.20;89.70;;;;;;5056499;28;20123;-74
2022/07/27 07:45:29;;;;;;;0.40;0.40;;;17.30;90.00;;;;;;5056707;28;20067;-75
2022/07/27 07:47:55;;;;;;;1.65;0.57;;;17.60;89.30;;;;;;5051867;28;20056;-73
2022/07/27 07:50:21;;;;;;;1.35;0.85;;;17.80;85.80;;;;;;5058882;28;20032;-69
2022/07/27 07:52:48;;;;;;;0.32;0.20;;;17.90;82.80;;;;;;5058411;28;20391;-74
2022/07/27 07:55:14;;;;;;;0.35;0.35;;;17.90;82.20;;;;;;5048819;28;20017;-73
2022/07/27 07:57:40;;;;;;;22.70;5.32;;;17.60;86.00;;;;;;5058350;28;20043;-76
2022/07/27 08:00:08;;;;;;;23.98;5.90;;;17.70;86.70;;;;;;5059545;28;20037;-76
2022/07/27 08:02:42;;;;;;;2.22;1.10;;;17.80;82.90;;;;;;5057565;28;20456;-76
2022/07/27 08:05:08;;;;;;;4.57;1.00;;;17.70;78.90;;;;;;5058509;28;20032;-75
2022/07/27 08:07:33;;;;;;;0.75;0.10;;;17.60;82.20;;;;;;5047523;28;20200;-72
2022/07/27 08:10:13;;;;;;;1.05;0.40;;;17.70;80.10;;;;;;5055365;28;20017;-74
2022/07/27 08:12:42;;;;;;;0.32;0.32;;;17.70;78.90;;;;;;5054459;28;20040;-74
2022/07/27 08:15:09;;;;;;;0.90;0.70;;;17.90;81.30;;;;;;5057467;28;20024;-75
2022/07/27 08:17:38;;;;;;;6.38;3.15;;;18.00;78.00;;;;;;5059641;28;20050;-75
2022/07/27 08:20:17;;;;;;;2.47;1.15;;;18.00;76.50;;;;;;5061160;28;20033;-74
2022/07/27 08:22:43;;;;;;;0.30;0.20;;;17.90;73.20;;;;;;5064394;28;20030;-73
2022/07/27 08:25:10;;;;;;;0.28;0.28;;;17.70;75.30;;;;;;5056488;28;20024;-74
2022/07/27 08:27:36;;;;;;;0.82;0.60;;;17.70;77.10;;;;;;5057124;28;20025;-74
2022/07/27 08:30:03;;;;;;;0.30;0.30;;;17.70;78.90;;;;;;5052916;28;20027;-73
2022/07/27 08:32:28;;;;;;;0.63;0.55;;;17.60;79.40;;;;;;5058933;28;20020;-73
2022/07/27 08:34:55;;;;;;;0.20;0.20;;;17.60;80.40;;;;;;5059948;28;20035;-74
2022/07/27 08:37:20;;;;;;;0.65;0.63;;;17.50;80.90;;;;;;5055053;28;20067;-73
2022/07/27 08:39:45;;;;;;;0.75;0.32;;;17.50;79.60;;;;;;5055188;28;20056;-74
2022/07/27 08:42:11;;;;;;;0.20;0.10;;;17.80;78.60;;;;;;5057787;28;20028;-74
2022/07/27 08:44:41;;;;;;;0.43;0.30;;;18.10;78.00;;;;;;5057144;28;20438;-75
2022/07/27 08:47:10;;;;;;;2.30;0.28;;;18.10;74.00;;;;;;5054866;28;20086;-76
2022/07/27 08:49:38;;;;;;;0.57;0.40;;;18.20;74.80;;;;;;5048006;28;20049;-76
2022/07/27 08:52:04;;;;;;;1.27;0.43;;;18.40;75.60;;;;;;5046384;28;20422;-75
2022/07/27 08:54:37;;;;;;;5.70;1.02;;;18.40;74.30;;;;;;5053344;28;20110;-77
2022/07/27 08:57:07;;;;;;;0.10;0.10;;;18.20;74.00;;;;;;5049366;28;20085;-76
2022/07/27 08:59:32;;;;;;;0.20;0.20;;;18.10;74.10;;;;;;5051851;28;20024;-76
2022/07/27 09:01:58;;;;;;;1.80;0.40;;;18.20;73.10;;;;;;5048917;28;20056;-73
2022/07/27 09:04:24;;;;;;;4.05;2.30;;;18.20;72.90;;;;;;5043374;28;20533;-73
2022/07/27 09:06:50;;;;;;;0.77;0.28;;;18.00;73.80;;;;;;5042978;28;20029;-74
2022/07/27 09:09:20;;;;;;;1.45;0.55;;;17.90;73.30;;;;;;5052476;28;20024;-74
2022/07/27 09:12:01;;;;;;;0.40;0.40;;;17.90;73.80;;;;;;5046724;28;20033;-74
2022/07/27 09:14:31;;;;;;;0.30;0.20;;;18.00;74.50;;;;;;5048006;28;20086;-74
2022/07/27 09:17:16;;;;;;;4.90;3.08;;;18.40;74.20;;;;;;5049796;28;20116;-74
2022/07/27 09:19:59;;;;;;;0.32;0.30;;;18.70;75.70;;;;;;5049608;28;20043;-74
2022/07/27 09:22:41;;;;;;;40.88;8.00;;;19.10;74.00;;;;;;5046575;28;20021;-75
2022/07/27 09:25:08;;;;;;;1.13;0.50;;;19.60;73.40;;;;;;5054919;28;20033;-75
2022/07/27 09:27:34;;;;;;;11.65;2.80;;;19.90;69.90;;;;;;5051276;28;20045;-74
2022/07/27 09:30:05;;;;;;;3.65;0.80;;;19.90;66.80;;;;;;5058394;28;20400;-74
2022/07/27 09:32:30;;;;;;;3.20;1.23;;;19.70;67.80;;;;;;5045088;28;20029;-74
2022/07/27 09:34:56;;;;;;;1.63;0.32;;;19.70;69.10;;;;;;5046807;28;20303;-75
2022/07/27 09:37:26;;;;;;;2.15;0.60;;;19.70;69.20;;;;;;5049994;28;22362;-74
2022/07/27 09:40:10;;;;;;;1.70;0.80;;;19.60;67.50;;;;;;5052281;28;20036;-75
2022/07/27 09:42:36;;;;;;;3.13;0.52;;;19.70;67.90;;;;;;5052381;28;20024;-75
2022/07/27 09:45:02;;;;;;;0.30;0.30;;;19.90;68.70;;;;;;5057924;28;20040;-75
2022/07/27 09:47:29;;;;;;;0.28;0.28;;;20.20;65.40;;;;;;5056170;28;20124;-76
2022/07/27 09:49:57;;;;;;;3.25;1.27;;;20.50;67.80;;;;;;5047472;28;20071;-77
2022/07/27 09:52:27;;;;;;;4.70;1.58;;;20.40;67.80;;;;;;5055436;28;20033;-76
2022/07/27 09:54:53;;;;;;;1.98;0.95;;;20.10;64.40;;;;;;5046701;28;20029;-78
2022/07/27 09:57:19;;;;;;;0.88;0.43;;;19.90;65.60;;;;;;5047062;28;20029;-77
2022/07/27 09:59:45;;;;;;;0.17;0.17;;;19.60;65.20;;;;;;5048142;28;20069;-75
2022/07/27 10:02:14;;;;;;;0.35;0.20;;;19.40;66.00;;;;;;5046042;28;20144;-74
2022/07/27 10:04:41;;;;;;;0.40;0.40;;;19.50;67.80;;;;;;5063174;28;20044;-75
2022/07/27 10:07:07;;;;;;;0.25;0.22;;;19.70;67.20;;;;;;5053992;28;20020;-75
2022/07/27 10:09:45;;;;;;;0.20;0.20;;;19.60;66.90;;;;;;5052881;28;20028;-75
2022/07/27 10:12:11;;;;;;;1.48;0.60;;;19.80;66.70;;;;;;5046687;28;20029;-76
2022/07/27 10:14:36;;;;;;;384.90;104.22;;;20.10;67.10;;;;;;5042754;28;20040;-76
2022/07/27 10:17:02;;;;;;;3.95;2.45;;;20.30;67.70;;;;;;5050133;28;20728;-76
2022/07/27 10:19:43;;;;;;;0.80;0.70;;;20.80;67.60;;;;;;5049639;28;20178;-75
2022/07/27 10:22:09;;;;;;;0.43;0.43;;;21.00;66.40;;;;;;5049581;28;20029;-75
2022/07/27 10:24:35;;;;;;;4.25;2.15;;;21.10;64.60;;;;;;5043245;28;20443;-74
2022/07/27 10:27:26;;;;;;;1.05;0.70;;;20.80;65.50;;;;;;5049650;28;20116;-75
2022/07/27 10:29:54;;;;;;;4.07;1.35;;;21.00;66.80;;;;;;5047846;28;20170;-76
2022/07/27 10:32:32;;;;;;;13.95;4.65;;;21.10;64.30;;;;;;5060372;28;20090;-76
2022/07/27 10:35:00;;;;;;;4.00;1.70;;;21.10;66.20;;;;;;5048078;28;20173;-76
2022/07/27 10:37:26;;;;;;;1.38;0.50;;;21.00;64.80;;;;;;5047269;28;20108;-74
2022/07/27 10:42:49;;;;;;;1.15;0.63;;;20.50;65.30;;;;;;5055648;28;20023;-75
2022/07/27 10:45:17;;;;;;;0.50;0.32;;;20.60;65.80;;;;;;5058836;28;20028;-77
2022/07/27 10:47:49;;;;;;;0.35;0.35;;;20.90;64.60;;;;;;5061321;28;20020;-75
2022/07/27 10:50:14;;;;;;;0.50;0.50;;;21.20;64.90;;;;;;5051373;28;20052;-74
2022/07/27 10:52:42;;;;;;;0.30;0.30;;;21.50;64.50;;;;;;5047125;28;20062;-74
2022/07/27 10:55:35;;;;;;;0.45;0.45;;;21.80;61.10;;;;;;5062020;28;20022;-76
2022/07/27 10:58:09;;;;;;;0.63;0.63;;;21.50;64.90;;;;;;5062937;28;20020;-76
2022/07/27 11:00:50;;;;;;;0.65;0.50;;;21.50;64.30;;;;;;5054885;28;20025;-74
2022/07/27 11:03:26;;;;;;;1.40;0.80;;;21.60;60.30;;;;;;5072513;28;20032;-76
2022/07/27 11:06:11;;;;;;;0.55;0.35;;;21.10;62.00;;;;;;5061137;28;20020;-76
2022/07/27 11:08:41;;;;;;;0.80;0.60;;;;;;;;;;5064952;28;20038;-77
2022/07/27 11:11:09;;;;;;;0.40;0.40;;;20.70;65.50;;;;;;5064049;28;20028;-77
2022/07/27 11:13:35;;;;;;;1.80;0.40;;;20.90;63.80;;;;;;5058115;28;20029;-78
2022/07/27 11:16:03;;;;;;;2.42;1.27;;;21.70;63.60;;;;;;5058563;28;20682;-79
2022/07/27 11:18:31;;;;;;;2.78;0.38;;;22.20;62.90;;;;;;5064813;28;20025;-77
2022/07/27 11:21:19;;;;;;;0.40;0.20;;;22.20;61.10;;;;;;5057399;28;20029;-78
2022/07/27 11:23:47;;;;;;;1.75;0.50;;;21.90;60.80;;;;;;5064730;28;20021;-78
2022/07/27 11:26:14;;;;;;;0.52;0.28;;;21.60;60.00;;;;;;5061784;28;20569;-77
2022/07/27 11:28:41;;;;;;;6.32;0.57;;;21.30;62.00;;;;;;5060580;28;20024;-80
2022/07/27 11:31:08;;;;;;;0.52;0.50;;;21.00;62.60;;;;;;5063859;28;20069;-79
2022/07/27 11:33:34;;;;;;;0.85;0.52;;;20.70;65.10;;;;;;5065091;28;20107;-78
2022/07/27 11:36:08;;;;;;;0.17;0.17;;;20.70;63.10;;;;;;5066464;28;20140;-77
2022/07/27 11:38:53;;;;;;;0.30;0.25;;;20.60;64.10;;;;;;5060611;28;20535;-78
2022/07/27 11:41:32;;;;;;;0.45;0.43;;;20.70;62.10;;;;;;5056577;28;20463;-81
2022/07/27 11:44:09;;;;;;;0.20;0.20;;;20.80;62.10;;;;;;5062206;28;20419;-80
2022/07/27 11:46:41;;;;;;;0.50;0.30;;;20.80;61.00;;;;;;5057624;28;20029;-87
2022/07/27 11:49:09;;;;;;;0.95;0.50;;;21.10;59.70;;;;;;5052610;28;20017;-74
2022/07/27 11:51:40;;;;;;;0.50;0.30;;;21.80;58.90;;;;;;5067019;28;20024;-79
2022/07/27 11:54:07;;;;;;;;;;;22.10;57.30;;;;;;5061607;28;20115;-79
2022/07/27 11:56:36;;;;;;;0.45;0.20;;;22.10;56.90;;;;;;5067327;28;20033;-82
2022/07/27 11:59:11;;;;;;;1.33;0.85;;;21.90;58.00;;;;;;5064804;28;20032;-80
2022/07/27 12:01:42;;;;;;;1.55;0.35;;;22.10;58.40;;;;;;5066367;28;20068;-83
2022/07/27 12:04:14;;;;;;;2.08;0.50;;;22.40;58.40;;;;;;5063704;28;20220;-81
2022/07/27 12:06:48;;;;;;;0.75;0.35;;;22.70;57.50;;;;;;5064526;28;20029;-78
2022/07/27 12:09:15;;;;;;;0.85;0.63;;;22.50;56.00;;;;;;5061813;28;20064;-77
2022/07/27 12:11:56;;;;;;;0.98;0.63;;;22.50;56.40;;;;;;5064648;28;20029;-81
2022/07/27 12:14:35;;;;;;;1.13;0.57;;;23.00;57.20;;;;;;5061755;28;20024;-79
2022/07/27 12:17:11;;;;;;;0.98;0.45;;;22.40;55.30;;;;;;5068395;28;20491;-79
2022/07/27 12:19:37;;;;;;;1.55;0.52;;;22.30;56.00;;;;;;5060778;28;20100;-78
2022/07/27 12:22:03;;;;;;;0.90;0.20;;;22.10;56.90;;;;;;5065137;28;20180;-79
2022/07/27 12:24:34;;;;;;;0.43;0.28;;;22.20;56.00;;;;;;5065427;28;20108;-78
2022/07/27 12:27:01;;;;;;;0.47;0.38;;;22.60;57.70;;;;;;5063951;28;20060;-78
2022/07/27 12:29:27;;;;;;;0.65;0.35;;;22.80;56.90;;;;;;5054505;28;20146;-83
2022/07/27 12:31:53;;;;;;;3.17;0.50;;;23.10;55.10;;;;;;5062250;28;20349;-79
2022/07/27 12:34:18;;;;;;;1.40;0.30;;;23.30;54.30;;;;;;5059229;28;20060;-81
2022/07/27 12:36:44;;;;;;;0.30;0.30;;;23.20;54.60;;;;;;5066697;28;20482;-77
2022/07/27 12:39:25;;;;;;;1.02;0.43;;;23.30;54.00;;;;;;5060158;28;20115;-80
2022/07/27 12:42:01;;;;;;;;;;;23.60;55.40;;;;;;5064306;28;20035;-79
2022/07/27 12:44:32;;;;;;;0.30;0.30;;;23.50;53.00;;;;;;5076802;28;19908;-81
2022/07/27 12:47:39;;;;;;;0.40;0.40;;;22.60;53.60;;;;;;5052124;28;20047;-80
2022/07/27 12:50:18;;;;;;;0.40;0.40;;;22.40;54.30;;;;;;5060767;28;20032;-82
2022/07/27 12:52:47;;;;;;;0.20;0.20;;;22.10;55.50;;;;;;5080770;28;20394;-76
2022/07/27 12:55:13;;;;;;;3.88;0.80;;;21.70;55.70;;;;;;5079076;28;20036;-76